createdAt,value
2019-01-23T00:02:03.235Z,106.13
2019-01-23T00:04:33.550Z,100.80
2019-01-23T00:07:03.962Z,111.37
2019-01-23T00:09:37.382Z,109.03
2019-01-23T00:12:07.882Z,104.47
2019-01-23T00:14:38.193Z,109.57
2019-01-23T00:17:08.636Z,108.90
2019-01-23T00:19:40.539Z,109.37
2019-01-23T00:22:12.782Z,105.85
2019-01-23T00:24:44.805Z,106.80
2019-01-23T00:27:15.328Z,101.83
2019-01-23T00:29:45.600Z,101.17
2019-01-23T00:32:16.038Z,108.47
2019-01-23T00:34:46.348Z,97.13
2019-01-23T00:37:16.752Z,107.60
2019-01-23T00:39:47.167Z,104.27
2019-01-23T00:42:17.581Z,97.35
2019-01-23T00:44:50.768Z,110.83
2019-01-23T00:47:21.139Z,115.57
2019-01-23T00:49:51.509Z,101.73
2019-01-23T00:52:21.924Z,109.63
2019-01-23T00:54:52.401Z,113.40
2019-01-23T00:57:22.877Z,112.20
2019-01-23T00:59:53.289Z,108.97
2019-01-23T01:02:23.665Z,99.57
2019-01-23T01:04:54.023Z,100.40
2019-01-23T01:07:24.442Z,94.83
2019-01-23T01:09:54.871Z,101.83
2019-01-23T01:12:26.937Z,95.60
2019-01-23T01:14:57.231Z,98.70
2019-01-23T01:17:29.348Z,109.27
2019-01-23T01:19:59.692Z,107.80
2019-01-23T01:22:30.209Z,102.50
2019-01-23T01:25:02.654Z,94.40
2019-01-23T01:27:34.196Z,93.53
2019-01-23T01:30:06.133Z,99.23
2019-01-23T01:32:39.512Z,104.80
2019-01-23T01:35:10.243Z,98.25
2019-01-23T01:37:43.500Z,97.50
2019-01-23T01:40:19.306Z,95.93
2019-01-23T01:42:52.634Z,97.97
2019-01-23T01:45:23.127Z,102.30
2019-01-23T01:47:53.595Z,102.93
2019-01-23T01:50:24.068Z,96.60
2019-01-23T01:52:54.583Z,103.13
2019-01-23T01:55:24.948Z,96.00
2019-01-23T01:58:00.660Z,105.53
2019-01-23T02:00:34.718Z,102.73
2019-01-23T02:03:05.132Z,98.33
2019-01-23T02:05:35.566Z,102.23
2019-01-23T02:08:07.460Z,102.00
2019-01-23T02:10:38.087Z,99.63
2019-01-23T02:13:08.789Z,101.27
2019-01-23T02:15:39.327Z,98.97
2019-01-23T02:18:12.779Z,101.33
2019-01-23T02:20:43.331Z,98.10
2019-01-23T02:23:13.786Z,107.83
2019-01-23T02:25:44.312Z,110.97
2019-01-23T02:28:14.729Z,103.75
2019-01-23T02:30:48.319Z,109.17
2019-01-23T02:33:21.803Z,103.17
2019-01-23T02:35:52.355Z,105.83
2019-01-23T02:38:22.841Z,98.70
2019-01-23T02:40:53.420Z,97.80
2019-01-23T02:43:23.916Z,102.10
2019-01-23T02:45:54.334Z,98.10
2019-01-23T02:48:24.778Z,106.80
2019-01-23T02:50:57.608Z,104.90
2019-01-23T02:53:27.961Z,104.90
2019-01-23T02:56:01.182Z,104.17
2019-01-23T02:58:31.721Z,101.53
2019-01-23T03:01:02.068Z,97.30
2019-01-23T03:16:38.772Z,99.30
2019-01-23T03:19:13.616Z,101.67
2019-01-23T03:21:44.075Z,95.77
2019-01-23T03:24:14.379Z,95.67
2019-01-23T03:26:44.681Z,99.77
2019-01-23T03:29:14.993Z,101.37
2019-01-23T03:31:45.317Z,103.20
2019-01-23T03:34:17.361Z,99.97
2019-01-23T03:36:49.003Z,104.43
2019-01-23T03:39:19.376Z,96.73
2019-01-23T03:41:49.716Z,118.33
2019-01-23T03:44:20.139Z,106.30
2019-01-23T03:46:50.789Z,109.07
2019-01-23T03:49:21.205Z,99.13
2019-01-23T03:51:51.740Z,109.97
2019-01-23T03:54:32.778Z,107.15
2019-01-23T03:57:03.504Z,107.47
2019-01-23T03:59:33.915Z,101.92
2019-01-23T04:02:04.410Z,111.63
2019-01-23T04:04:34.832Z,115.22
2019-01-23T04:07:05.336Z,122.60
2019-01-23T04:09:39.630Z,119.03
2019-01-23T04:12:11.641Z,108.90
2019-01-23T04:14:41.915Z,109.80
2019-01-23T04:17:12.484Z,121.25
2019-01-23T04:19:42.859Z,107.60
2019-01-23T04:22:13.275Z,125.97
2019-01-23T04:24:43.714Z,115.57
2019-01-23T04:27:15.564Z,119.57
2019-01-23T04:29:45.950Z,132.33
2019-01-23T04:32:16.295Z,117.17
2019-01-23T04:34:47.735Z,123.03
2019-01-23T04:37:18.054Z,119.70
2019-01-23T04:39:48.501Z,102.63
2019-01-23T04:42:18.818Z,119.25
2019-01-23T04:44:50.899Z,114.40
2019-01-23T04:47:21.361Z,111.30
2019-01-23T04:49:52.867Z,138.12
2019-01-23T04:52:40.993Z,117.17
2019-01-23T04:55:11.521Z,119.97
2019-01-23T04:57:41.827Z,123.35
2019-01-23T05:00:14.115Z,105.07
2019-01-23T05:02:44.496Z,127.57
2019-01-23T05:05:14.760Z,122.37
2019-01-23T05:07:46.357Z,125.15
2019-01-23T05:10:19.959Z,124.82
2019-01-23T05:12:50.378Z,131.77
2019-01-23T05:15:23.092Z,126.75
2019-01-23T05:17:54.926Z,126.37
2019-01-23T05:20:25.307Z,124.07
2019-01-23T05:22:55.676Z,119.77
2019-01-23T05:25:41.458Z,121.53
2019-01-23T05:28:11.898Z,109.48
2019-01-23T05:30:48.201Z,133.07
2019-01-23T05:33:18.506Z,125.53
2019-01-23T05:35:51.253Z,134.10
2019-01-23T05:38:21.835Z,137.97
2019-01-23T05:40:54.563Z,127.17
2019-01-23T05:45:32.939Z,136.40
2019-01-23T05:47:38.626Z,137.03
2019-01-23T05:53:24.253Z,125.87
2019-01-23T05:56:03.276Z,130.70
2019-01-23T05:59:15.879Z,141.27
2019-01-23T06:01:46.451Z,128.17
2019-01-23T06:04:19.660Z,117.42
2019-01-23T06:06:50.289Z,129.67
2019-01-23T06:09:26.421Z,133.43
2019-01-23T06:12:00.089Z,134.70
2019-01-23T06:14:30.981Z,145.80
2019-01-23T06:17:01.689Z,128.53
2019-01-23T06:19:45.056Z,132.65
2019-01-23T06:22:07.502Z,130.65
2019-01-23T06:24:42.614Z,128.93
2019-01-23T06:27:13.220Z,125.78
2019-01-23T06:29:46.867Z,131.93
2019-01-23T06:32:25.026Z,131.43
2019-01-23T06:35:01.444Z,130.53
2019-01-23T06:37:31.628Z,128.27
2019-01-23T06:41:05.042Z,130.32
2019-01-23T06:43:50.153Z,135.93
2019-01-23T06:47:16.296Z,136.40
2019-01-23T06:54:06.086Z,136.10
2019-01-23T06:57:16.444Z,130.80
2019-01-23T06:59:58.753Z,135.83
2019-01-23T07:02:30.966Z,129.03
2019-01-23T07:05:13.527Z,127.83
2019-01-23T07:07:53.606Z,130.80
2019-01-23T07:10:30.268Z,120.30
2019-01-23T07:13:02.967Z,127.67
2019-01-23T07:15:44.313Z,124.67
2019-01-23T07:18:17.206Z,121.28
2019-01-23T07:20:49.958Z,127.00
2019-01-23T07:23:21.958Z,129.17
2019-01-23T07:25:52.370Z,126.00
2019-01-23T07:28:25.374Z,135.93
2019-01-23T07:30:57.010Z,124.13
2019-01-23T07:33:27.601Z,136.03
2019-01-23T07:35:58.130Z,109.73
2019-01-23T07:38:28.557Z,142.77
2019-01-23T07:41:16.552Z,126.13
2019-01-23T07:43:57.200Z,131.37
2019-01-23T07:46:40.544Z,130.63
2019-01-23T07:49:13.198Z,120.90
2019-01-23T07:52:10.802Z,127.73
2019-01-23T07:54:41.317Z,118.30
2019-01-23T07:57:44.336Z,131.33
2019-01-23T08:00:44.801Z,126.47
2019-01-23T08:03:18.197Z,129.53
2019-01-23T08:05:48.860Z,129.37
2019-01-23T08:08:20.536Z,124.97
2019-01-23T08:11:00.827Z,134.85
2019-01-23T08:13:47.268Z,114.43
2019-01-23T08:16:32.927Z,129.10
2019-01-23T08:19:25.029Z,118.97
2019-01-23T08:21:51.179Z,119.97
2019-01-23T08:24:21.689Z,119.97
2019-01-23T08:26:57.824Z,121.17
2019-01-23T08:32:41.225Z,139.17
2019-01-23T08:35:32.878Z,143.13
2019-01-23T08:39:04.754Z,143.23
2019-01-23T08:41:37.888Z,134.93
2019-01-23T08:44:11.165Z,116.97
2019-01-23T08:46:41.689Z,120.67
2019-01-23T08:50:22.136Z,119.72
2019-01-23T08:53:03.290Z,123.73
2019-01-23T08:55:42.853Z,119.30
2019-01-23T08:58:26.069Z,118.87
2019-01-23T09:01:32.114Z,122.25
2019-01-23T09:04:28.593Z,129.30
2019-01-23T09:07:08.934Z,125.57
2019-01-23T09:09:54.252Z,115.53
2019-01-23T09:12:28.567Z,117.80
2019-01-23T09:18:49.784Z,115.90
2019-01-23T09:21:33.454Z,105.87
2019-01-23T09:24:22.908Z,120.63
2019-01-23T09:26:59.451Z,124.93
2019-01-23T09:29:38.880Z,127.73
2019-01-23T09:33:14.526Z,123.87
2019-01-23T09:36:13.009Z,127.60
2019-01-23T09:39:45.958Z,119.42
2019-01-23T09:43:09.640Z,133.10
2019-01-23T09:46:40.805Z,131.10
2019-01-23T09:50:04.720Z,120.00
2019-01-23T09:53:36.434Z,105.17
2019-01-23T09:56:29.724Z,100.95
2019-01-23T10:12:33.985Z,96.33
2019-01-23T10:15:14.003Z,100.10
2019-01-23T10:17:51.094Z,91.53
2019-01-23T10:20:26.352Z,103.60
2019-01-23T10:23:30.503Z,104.93
2019-01-23T10:26:30.190Z,105.23
2019-01-23T10:29:13.896Z,98.43
2019-01-23T10:31:47.438Z,98.00
2019-01-23T10:34:21.052Z,105.60
2019-01-23T10:37:02.406Z,97.80
2019-01-23T10:39:37.081Z,104.50
2019-01-23T10:42:22.138Z,101.60
2019-01-23T10:45:01.078Z,101.40
2019-01-23T10:47:46.884Z,97.67
2019-01-23T10:50:20.766Z,99.40
2019-01-23T10:54:15.265Z,90.70
2019-01-23T10:56:25.077Z,92.08
2019-01-23T10:59:05.201Z,84.70
2019-01-23T11:01:40.730Z,94.10
2019-01-23T11:04:58.847Z,91.37
2019-01-23T11:07:33.290Z,89.90
2019-01-23T11:10:40.906Z,90.07
2019-01-23T11:13:13.772Z,89.57
2019-01-23T11:15:49.875Z,88.37
2019-01-23T11:18:31.510Z,87.33
2019-01-23T11:21:02.050Z,88.93
2019-01-23T11:23:36.877Z,89.80
2019-01-23T11:26:10.604Z,90.67
2019-01-23T11:28:44.951Z,89.50
2019-01-23T11:31:29.765Z,90.10
2019-01-23T11:34:14.124Z,84.22
2019-01-23T11:36:46.345Z,92.92
2019-01-23T11:39:19.806Z,89.60
2019-01-23T11:41:50.265Z,87.60
2019-01-23T11:44:20.737Z,87.33
2019-01-23T11:46:53.326Z,84.37
2019-01-23T11:49:25.735Z,80.65
2019-01-23T11:51:57.552Z,85.03
2019-01-23T11:54:28.245Z,79.40
2019-01-23T11:56:58.528Z,79.57
2019-01-23T11:59:30.103Z,77.70
2019-01-23T12:02:06.763Z,80.53
2019-01-23T12:04:38.573Z,85.37
2019-01-23T12:07:12.861Z,86.20
2019-01-23T12:09:43.925Z,89.30
2019-01-23T12:12:17.011Z,80.32
2019-01-23T12:14:47.517Z,85.07
2019-01-23T12:17:24.792Z,78.80
2019-01-23T12:20:00.017Z,77.47
2019-01-23T12:22:38.317Z,72.47
2019-01-23T12:25:12.556Z,78.17
2019-01-23T12:27:48.367Z,82.67
2019-01-23T12:30:26.369Z,77.63
2019-01-23T12:32:56.956Z,73.43
2019-01-23T12:35:32.408Z,73.50
2019-01-23T12:38:02.807Z,76.73
2019-01-23T12:40:33.094Z,76.87
2019-01-23T12:43:03.604Z,78.63
2019-01-23T12:45:33.999Z,74.07
2019-01-23T12:48:04.562Z,75.07
2019-01-23T12:50:42.498Z,78.87
2019-01-23T12:54:11.854Z,82.00
2019-01-23T12:57:27.864Z,76.60
2019-01-23T13:00:05.395Z,72.83
2019-01-23T13:05:26.468Z,70.40
2019-01-23T13:08:45.573Z,78.83
2019-01-23T13:11:32.053Z,72.07
2019-01-23T13:14:33.994Z,78.50
2019-01-23T13:17:13.783Z,76.43
2019-01-23T13:19:44.548Z,80.07
2019-01-23T13:22:39.331Z,78.73
2019-01-23T13:26:16.793Z,82.53
2019-01-23T13:29:17.118Z,76.77
2019-01-23T13:32:01.892Z,77.77
2019-01-23T13:35:04.090Z,79.40
2019-01-23T13:37:39.821Z,79.17
2019-01-23T13:40:37.524Z,87.33
2019-01-23T13:43:07.020Z,80.80
2019-01-23T13:45:37.832Z,78.80
2019-01-23T13:48:10.186Z,82.80
2019-01-23T13:50:42.900Z,74.07
2019-01-23T13:53:24.648Z,80.17
2019-01-23T13:56:09.648Z,73.60
2019-01-23T13:58:45.664Z,78.10
2019-01-23T14:01:16.247Z,78.40
2019-01-23T14:03:47.757Z,81.50
2019-01-23T14:06:18.089Z,83.90
2019-01-23T14:08:51.631Z,81.03
2019-01-23T14:11:22.080Z,80.47
2019-01-23T14:13:52.470Z,81.50
2019-01-23T14:16:22.897Z,81.83
2019-01-23T14:18:53.556Z,82.57
2019-01-23T14:21:23.948Z,73.60
2019-01-23T14:23:54.494Z,79.33
2019-01-23T14:26:24.763Z,79.37
2019-01-23T14:28:56.828Z,78.60
2019-01-23T14:31:27.179Z,77.17
2019-01-23T14:33:59.143Z,76.17
2019-01-23T14:36:29.721Z,77.33
2019-01-23T14:39:01.663Z,79.20
2019-01-23T14:41:34.843Z,79.92
2019-01-23T14:44:05.731Z,78.70
2019-01-23T14:46:39.151Z,81.67
2019-01-23T14:49:09.837Z,80.73
2019-01-23T14:51:44.636Z,83.83
2019-01-23T14:54:15.237Z,81.63
2019-01-23T14:56:47.625Z,83.40
2019-01-23T14:59:20.724Z,75.90
2019-01-23T15:01:53.690Z,83.27
2019-01-23T15:04:26.656Z,84.97
2019-01-23T15:06:58.491Z,81.30
2019-01-23T15:09:28.712Z,77.20
2019-01-23T15:11:59.076Z,81.30
2019-01-23T15:14:29.491Z,81.73
2019-01-23T15:16:59.832Z,83.27
2019-01-23T15:19:30.201Z,80.00
2019-01-23T15:22:00.617Z,81.93
2019-01-23T15:24:32.706Z,77.23
2019-01-23T15:27:03.229Z,83.60
2019-01-23T15:29:34.947Z,83.30
2019-01-23T15:32:08.386Z,80.23
2019-01-23T15:34:38.780Z,78.13
2019-01-23T15:37:10.232Z,81.17
2019-01-23T15:39:40.706Z,82.33
2019-01-23T15:42:11.047Z,84.40
2019-01-23T15:44:41.269Z,78.83
2019-01-23T15:47:11.792Z,88.05
2019-01-23T15:49:44.134Z,90.20
2019-01-23T15:52:14.551Z,89.20
2019-01-23T15:54:47.943Z,84.90
2019-01-23T15:57:18.242Z,83.00
2019-01-23T15:59:48.482Z,99.80
2019-01-23T16:02:24.288Z,88.03
2019-01-23T16:04:53.680Z,88.00
2019-01-23T16:07:24.077Z,88.03
2019-01-23T16:09:57.220Z,93.13
2019-01-23T16:12:28.912Z,84.97
2019-01-23T16:14:59.435Z,95.27
2019-01-23T16:17:29.822Z,84.17
2019-01-23T16:20:00.208Z,93.78
2019-01-23T16:22:33.475Z,91.87
2019-01-23T16:25:06.558Z,91.37
2019-01-23T16:27:47.349Z,93.73
2019-01-23T16:30:42.656Z,88.43
2019-01-23T16:33:12.879Z,87.60
2019-01-23T16:35:43.345Z,93.13
2019-01-23T16:38:16.590Z,86.33
2019-01-23T16:40:46.973Z,97.03
2019-01-23T16:43:19.558Z,100.60
2019-01-23T16:45:50.995Z,102.80
2019-01-23T16:48:21.296Z,93.27
2019-01-23T16:50:51.652Z,96.83
2019-01-23T16:53:22.073Z,105.20
2019-01-23T16:55:52.260Z,98.80
2019-01-23T16:58:41.997Z,94.77
2019-01-23T17:01:12.254Z,98.80
2019-01-23T17:03:42.695Z,99.27
2019-01-23T17:06:13.042Z,97.80
2019-01-23T17:08:43.344Z,104.47
2019-01-23T17:11:13.620Z,89.57
2019-01-23T17:13:43.927Z,106.63
2019-01-23T17:16:14.224Z,96.87
2019-01-23T17:18:44.433Z,93.37
2019-01-23T17:21:14.752Z,107.00
2019-01-23T17:23:45.220Z,94.17
2019-01-23T17:26:15.812Z,100.15
2019-01-23T17:28:46.663Z,105.00
2019-01-23T17:31:33.743Z,103.93
2019-01-23T17:34:04.494Z,95.03
2019-01-23T17:36:35.011Z,110.10
2019-01-23T17:39:09.649Z,100.20
2019-01-23T17:41:40.189Z,98.27
2019-01-23T17:44:11.007Z,107.00
2019-01-23T17:46:41.736Z,105.37
2019-01-23T17:49:12.254Z,99.97
2019-01-23T17:51:42.787Z,97.60
2019-01-23T17:54:12.984Z,110.40
2019-01-23T17:56:43.336Z,98.20
2019-01-23T17:59:13.762Z,105.73
2019-01-23T18:01:44.019Z,105.85
2019-01-23T18:04:14.328Z,103.87
2019-01-23T18:06:44.615Z,108.57
2019-01-23T18:09:14.922Z,109.37
2019-01-23T18:11:45.217Z,105.67
2019-01-23T18:14:15.551Z,107.22
2019-01-23T18:16:45.745Z,110.07
2019-01-23T18:19:16.066Z,108.83
2019-01-23T18:21:46.392Z,102.07
2019-01-23T18:24:16.835Z,103.80
2019-01-23T18:26:47.187Z,119.90
2019-01-23T18:29:17.544Z,108.53
2019-01-23T18:31:56.521Z,104.33
2019-01-23T18:35:32.017Z,115.70
2019-01-23T18:38:34.034Z,103.13
2019-01-23T18:42:01.406Z,106.17
2019-01-23T18:45:11.595Z,101.73
2019-01-23T18:48:25.731Z,109.13
2019-01-23T18:51:44.918Z,110.08
2019-01-23T18:54:15.196Z,125.27
2019-01-23T18:56:45.633Z,107.33
2019-01-23T18:59:16.018Z,101.80
2019-01-23T19:01:46.370Z,115.67
2019-01-23T19:04:16.730Z,107.40
2019-01-23T19:06:47.104Z,105.57
2019-01-23T19:09:17.357Z,102.33
2019-01-23T19:11:47.682Z,108.00
2019-01-23T19:14:24.267Z,112.30
2019-01-23T19:16:50.029Z,109.27
2019-01-23T19:19:20.360Z,120.53
2019-01-23T19:21:55.077Z,107.10
2019-01-23T19:24:22.661Z,115.33
2019-01-23T19:26:53.019Z,111.10
2019-01-23T19:29:23.408Z,115.00
2019-01-23T19:31:55.517Z,107.27
2019-01-23T19:34:26.079Z,115.67
2019-01-23T19:36:56.362Z,117.27
2019-01-23T19:39:26.968Z,113.70
2019-01-23T19:41:57.663Z,105.63
2019-01-23T19:44:28.290Z,111.30
2019-01-23T19:46:58.658Z,101.40
2019-01-23T19:49:29.246Z,117.63
2019-01-23T19:51:59.762Z,106.43
2019-01-23T19:54:30.520Z,107.87
2019-01-23T19:57:04.644Z,123.93
2019-01-23T19:59:35.285Z,112.87
2019-01-23T20:02:05.845Z,114.30
2019-01-23T20:04:36.354Z,119.50
2019-01-23T20:07:07.265Z,111.65
2019-01-23T20:09:37.728Z,122.83
2019-01-23T20:12:08.541Z,115.33
2019-01-23T20:14:40.771Z,110.40
2019-01-23T20:17:11.515Z,135.82
2019-01-23T20:19:42.068Z,117.53
2019-01-23T20:22:12.838Z,125.57
2019-01-23T20:24:43.438Z,116.03
2019-01-23T20:27:13.980Z,129.30
2019-01-23T20:29:44.509Z,113.07
2019-01-23T20:32:15.034Z,120.07
2019-01-23T20:34:45.672Z,109.97
2019-01-23T20:37:16.297Z,119.93
2019-01-23T20:39:46.859Z,126.07
2019-01-23T20:42:17.410Z,122.87
2019-01-23T20:44:48.013Z,118.97
2019-01-23T20:47:18.715Z,130.10
2019-01-23T20:49:50.433Z,111.97
2019-01-23T20:52:21.032Z,129.20
2019-01-23T20:54:51.972Z,136.30
2019-01-23T20:57:24.328Z,123.30
2019-01-23T20:59:54.871Z,124.67
2019-01-23T21:02:25.466Z,128.00
2019-01-23T21:04:56.104Z,128.13
2019-01-23T21:07:26.754Z,122.33
2019-01-23T21:10:00.248Z,119.55
2019-01-23T21:12:30.726Z,129.67
2019-01-23T21:15:01.211Z,133.53
2019-01-23T21:17:31.683Z,125.13
2019-01-23T21:20:02.327Z,120.17
2019-01-23T21:22:32.900Z,129.37
2019-01-23T21:25:03.449Z,124.50
2019-01-23T21:27:34.068Z,124.80
2019-01-23T21:30:05.431Z,130.63
2019-01-23T21:32:35.778Z,114.27
2019-01-23T21:35:06.512Z,117.60
2019-01-23T21:37:36.769Z,139.30
2019-01-23T21:40:12.910Z,112.13
2019-01-23T21:42:43.158Z,132.73
2019-01-23T21:45:13.985Z,117.97
2019-01-23T21:47:44.393Z,134.23
2019-01-23T21:50:17.932Z,130.73
2019-01-23T21:52:48.284Z,117.30
2019-01-23T21:55:21.158Z,153.17
2019-01-23T21:57:51.981Z,133.47
2019-01-23T22:00:32.422Z,120.17
2019-01-23T22:03:02.996Z,135.70
2019-01-23T22:05:33.330Z,134.43
2019-01-23T22:08:03.738Z,129.37
2019-01-23T22:10:34.176Z,124.90
2019-01-23T22:13:04.587Z,140.53
2019-01-23T22:15:35.035Z,124.77
2019-01-23T22:18:07.486Z,133.70
2019-01-23T22:20:37.810Z,132.00
2019-01-23T22:23:08.113Z,136.33
2019-01-23T22:25:38.529Z,129.77
2019-01-23T22:28:09.132Z,124.43
2019-01-23T22:30:39.434Z,126.97
2019-01-23T22:33:09.708Z,127.67
2019-01-23T22:35:39.959Z,136.70
2019-01-23T22:38:10.291Z,121.83
2019-01-23T22:40:40.552Z,129.83
2019-01-23T22:43:15.008Z,136.90
2019-01-23T22:45:42.819Z,139.77
2019-01-23T22:48:13.017Z,143.93
2019-01-23T22:50:43.238Z,137.57
2019-01-23T22:53:13.539Z,140.50
2019-01-23T22:55:43.780Z,138.30
2019-01-23T22:58:14.034Z,142.10
2019-01-23T23:01:10.745Z,128.27
2019-01-23T23:03:41.004Z,138.67
2019-01-23T23:06:11.348Z,142.75
2019-01-23T23:08:41.628Z,150.07
2019-01-23T23:11:11.984Z,139.77
2019-01-23T23:13:42.250Z,143.73
2019-01-23T23:16:12.509Z,130.55
2019-01-23T23:18:49.846Z,138.57
2019-01-23T23:21:20.121Z,126.40
2019-01-23T23:23:50.378Z,131.07
2019-01-23T23:26:20.826Z,131.85
2019-01-23T23:28:51.140Z,137.03
2019-01-23T23:31:21.295Z,148.20
2019-01-23T23:33:51.524Z,145.23
2019-01-23T23:36:21.626Z,147.15
2019-01-23T23:38:51.853Z,136.97
2019-01-23T23:41:22.205Z,137.10
2019-01-23T23:43:52.448Z,132.40
2019-01-23T23:46:25.506Z,154.65
2019-01-23T23:48:55.694Z,144.77
2019-01-23T23:51:25.977Z,151.93
2019-01-23T23:53:56.195Z,142.23
2019-01-23T23:56:26.414Z,149.40
2019-01-23T23:58:56.637Z,140.23
